createdAt,value
2022-12-31T00:01:24.580Z,1.00
2022-12-31T00:03:51.481Z,1.33
2022-12-31T00:06:28.413Z,1.10
2022-12-31T00:08:55.920Z,1.30
2022-12-31T00:11:23.141Z,1.30
2022-12-31T00:13:50.181Z,1.10
2022-12-31T00:16:21.382Z,1.27
2022-12-31T00:18:48.939Z,1.00
2022-12-31T00:21:15.959Z,1.20
2022-12-31T00:23:42.920Z,1.30
2022-12-31T00:26:11.281Z,1.30
2022-12-31T00:28:38.965Z,1.30
2022-12-31T00:31:06.996Z,1.17
2022-12-31T00:33:33.891Z,1.20
2022-12-31T00:36:04.968Z,1.17
2022-12-31T00:38:31.855Z,1.20
2022-12-31T00:40:58.421Z,1.08
2022-12-31T00:43:25.064Z,1.10
2022-12-31T00:45:51.750Z,1.45
2022-12-31T00:48:18.501Z,1.40
2022-12-31T00:50:45.487Z,1.20
2022-12-31T00:53:12.127Z,1.35
2022-12-31T00:55:38.941Z,1.15
2022-12-31T00:58:05.574Z,1.17
2022-12-31T01:00:32.180Z,1.10
2022-12-31T01:02:58.940Z,1.20
2022-12-31T01:05:25.688Z,1.30
2022-12-31T01:07:52.571Z,1.20
2022-12-31T01:10:37.922Z,1.30
2022-12-31T01:13:04.613Z,1.10
2022-12-31T01:15:38.198Z,1.20
2022-12-31T01:18:06.042Z,1.00
2022-12-31T01:20:36.831Z,1.00
2022-12-31T01:23:03.640Z,0.80
2022-12-31T01:25:30.375Z,1.00
2022-12-31T01:27:56.977Z,0.90
2022-12-31T01:30:23.631Z,1.27
2022-12-31T01:32:51.332Z,1.20
2022-12-31T01:35:17.992Z,0.80
2022-12-31T01:37:44.607Z,1.00
2022-12-31T01:40:11.332Z,1.15
2022-12-31T01:42:37.986Z,0.82
2022-12-31T01:45:09.636Z,1.17
2022-12-31T01:47:44.904Z,0.95
2022-12-31T01:50:34.020Z,1.00
2022-12-31T01:53:01.988Z,1.15
2022-12-31T01:55:31.856Z,0.95
2022-12-31T01:58:04.362Z,0.98
2022-12-31T02:00:31.697Z,0.82
2022-12-31T02:02:58.810Z,1.00
2022-12-31T02:05:42.882Z,0.90
2022-12-31T02:08:09.964Z,1.00
2022-12-31T02:10:36.595Z,0.70
2022-12-31T02:13:03.457Z,0.80
2022-12-31T02:15:38.310Z,0.70
2022-12-31T02:18:28.185Z,1.35
2022-12-31T02:21:13.644Z,0.80
2022-12-31T02:23:40.678Z,0.80
2022-12-31T02:26:18.469Z,0.70
2022-12-31T02:28:45.107Z,0.73
2022-12-31T02:31:16.777Z,0.70
2022-12-31T02:33:57.566Z,0.80
2022-12-31T02:36:27.750Z,0.70
2022-12-31T02:38:54.918Z,0.70
2022-12-31T02:41:40.553Z,0.70
2022-12-31T02:44:19.384Z,0.82
2022-12-31T02:46:51.638Z,0.70
2022-12-31T02:49:30.996Z,0.60
2022-12-31T02:52:01.205Z,0.70
2022-12-31T02:54:33.807Z,0.80
2022-12-31T02:57:12.532Z,0.80
2022-12-31T03:00:02.504Z,0.70
2022-12-31T03:02:30.804Z,0.80
2022-12-31T03:04:57.882Z,0.70
2022-12-31T03:07:28.758Z,0.75
2022-12-31T03:09:55.449Z,0.70
2022-12-31T03:12:42.669Z,0.90
2022-12-31T03:15:19.967Z,0.90
2022-12-31T03:17:52.934Z,0.68
2022-12-31T03:20:39.629Z,0.80
2022-12-31T03:23:07.848Z,0.70
2022-12-31T03:25:43.328Z,0.60
2022-12-31T03:28:15.597Z,0.55
2022-12-31T03:30:43.990Z,0.82
2022-12-31T03:33:11.093Z,0.75
2022-12-31T03:35:38.911Z,0.60
2022-12-31T03:38:06.312Z,0.70
2022-12-31T03:40:34.909Z,0.90
2022-12-31T03:43:01.631Z,0.57
2022-12-31T03:45:28.297Z,0.82
2022-12-31T03:47:55.025Z,0.70
2022-12-31T03:50:21.642Z,0.60
2022-12-31T03:52:48.868Z,0.65
2022-12-31T03:55:15.550Z,0.80
2022-12-31T03:57:42.245Z,0.50
2022-12-31T04:00:10.806Z,0.82
2022-12-31T04:02:37.548Z,0.60
2022-12-31T04:05:04.948Z,0.70
2022-12-31T04:07:31.639Z,0.70
2022-12-31T04:09:58.333Z,0.80
2022-12-31T04:12:24.992Z,0.60
2022-12-31T04:14:51.589Z,1.00
2022-12-31T04:17:18.234Z,0.93
2022-12-31T04:19:44.970Z,0.70
2022-12-31T04:22:11.588Z,0.80
2022-12-31T04:24:38.261Z,0.80
2022-12-31T04:27:07.823Z,0.60
2022-12-31T04:29:35.454Z,0.65
2022-12-31T04:32:02.600Z,0.70
2022-12-31T04:34:29.593Z,0.80
2022-12-31T04:36:56.242Z,0.60
2022-12-31T04:39:22.953Z,0.57
2022-12-31T04:41:49.749Z,0.60
2022-12-31T04:44:16.671Z,0.75
2022-12-31T04:46:43.332Z,0.60
2022-12-31T04:49:10.307Z,0.70
2022-12-31T04:51:37.305Z,0.70
2022-12-31T04:54:03.965Z,0.75
2022-12-31T04:56:30.766Z,0.63
2022-12-31T04:58:57.466Z,0.70
2022-12-31T05:01:24.429Z,0.50
2022-12-31T05:03:51.423Z,0.88
2022-12-31T05:06:22.145Z,1.00
2022-12-31T05:08:49.480Z,0.70
2022-12-31T05:11:16.625Z,0.60
2022-12-31T05:13:43.668Z,0.98
2022-12-31T05:16:10.377Z,0.82
2022-12-31T05:18:37.074Z,0.57
2022-12-31T05:21:03.815Z,0.68
2022-12-31T05:23:30.467Z,0.60
2022-12-31T05:25:57.257Z,0.90
2022-12-31T05:28:23.911Z,0.90
2022-12-31T05:30:51.031Z,0.50
2022-12-31T05:33:18.225Z,0.60
2022-12-31T05:35:45.250Z,0.57
2022-12-31T05:38:11.994Z,0.63
2022-12-31T05:40:38.691Z,0.60
2022-12-31T05:43:05.593Z,0.63
2022-12-31T05:45:32.268Z,0.63
2022-12-31T05:47:59.015Z,0.65
2022-12-31T05:50:25.671Z,0.60
2022-12-31T05:52:55.848Z,0.60
2022-12-31T05:55:22.572Z,0.60
2022-12-31T05:57:49.273Z,0.70
2022-12-31T06:00:16.281Z,0.50
2022-12-31T06:02:43.031Z,0.70
2022-12-31T06:05:09.810Z,0.50
2022-12-31T06:07:36.465Z,0.60
2022-12-31T06:10:04.558Z,0.60
2022-12-31T06:12:31.461Z,0.70
2022-12-31T06:14:58.106Z,1.20
2022-12-31T06:17:25.087Z,0.95
2022-12-31T06:19:51.754Z,0.60
2022-12-31T06:22:18.494Z,0.80
2022-12-31T06:24:45.228Z,2.05
2022-12-31T06:27:11.963Z,2.15
2022-12-31T06:29:38.678Z,1.95
2022-12-31T06:32:05.621Z,2.05
2022-12-31T06:34:32.282Z,1.85
2022-12-31T06:36:59.287Z,1.33
2022-12-31T06:39:26.129Z,1.80
2022-12-31T06:41:52.773Z,1.00
2022-12-31T06:44:22.301Z,1.08
2022-12-31T06:46:49.855Z,1.42
2022-12-31T06:49:16.613Z,0.80
2022-12-31T06:51:45.913Z,0.98
2022-12-31T06:54:13.342Z,0.98
2022-12-31T06:56:40.397Z,1.13
2022-12-31T06:59:13.902Z,0.82
2022-12-31T07:01:55.677Z,0.90
2022-12-31T07:04:28.398Z,0.98
2022-12-31T07:07:05.199Z,1.40
2022-12-31T07:09:34.837Z,0.82
2022-12-31T07:12:01.757Z,0.88
2022-12-31T07:14:28.446Z,0.80
2022-12-31T07:17:21.243Z,1.00
2022-12-31T07:19:57.510Z,1.00
2022-12-31T07:22:25.058Z,0.88
2022-12-31T07:24:51.885Z,0.77
2022-12-31T07:27:37.350Z,0.60
2022-12-31T07:30:10.400Z,0.52
2022-12-31T07:32:37.069Z,0.70
2022-12-31T07:35:16.292Z,0.70
2022-12-31T07:38:01.699Z,0.70
2022-12-31T07:40:46.810Z,0.80
2022-12-31T07:43:19.666Z,0.70
2022-12-31T07:45:46.285Z,0.63
2022-12-31T07:48:39.218Z,0.60
2022-12-31T07:51:06.062Z,0.82
2022-12-31T07:53:32.862Z,0.75
2022-12-31T07:56:00.475Z,0.77
2022-12-31T07:58:30.159Z,0.77
2022-12-31T08:00:57.252Z,0.80
2022-12-31T08:03:35.950Z,0.93
2022-12-31T08:06:10.996Z,2.85
2022-12-31T08:08:37.641Z,2.53
2022-12-31T08:11:25.470Z,4.28
2022-12-31T08:13:53.707Z,2.83
2022-12-31T08:16:21.811Z,3.63
2022-12-31T08:18:48.772Z,2.40
2022-12-31T08:21:35.148Z,3.58
2022-12-31T08:24:07.805Z,3.75
2022-12-31T08:26:53.497Z,3.05
2022-12-31T08:29:23.239Z,2.83
2022-12-31T08:31:55.935Z,2.88
2022-12-31T08:35:01.332Z,2.30
2022-12-31T08:37:27.997Z,4.07
2022-12-31T08:40:00.257Z,5.22
2022-12-31T08:42:26.893Z,3.80
2022-12-31T08:45:01.832Z,2.70
2022-12-31T08:47:37.015Z,1.83
2022-12-31T08:50:05.344Z,2.08
2022-12-31T08:52:32.282Z,1.70
2022-12-31T08:54:59.217Z,1.17
2022-12-31T08:57:28.977Z,1.10
2022-12-31T09:00:05.772Z,1.52
2022-12-31T09:02:47.750Z,0.90
2022-12-31T09:05:37.801Z,0.90
2022-12-31T09:08:04.418Z,1.05
2022-12-31T09:10:38.447Z,0.90
2022-12-31T09:13:25.301Z,0.82
2022-12-31T09:15:57.705Z,1.10
2022-12-31T09:18:28.379Z,0.70
2022-12-31T09:20:59.645Z,1.02
2022-12-31T09:23:28.012Z,1.20
2022-12-31T09:26:05.268Z,1.10
2022-12-31T09:28:38.907Z,1.05
2022-12-31T09:31:15.202Z,1.00
2022-12-31T09:33:42.051Z,1.10
2022-12-31T09:36:10.871Z,1.02
2022-12-31T09:38:41.139Z,0.85
2022-12-31T09:41:26.577Z,0.88
2022-12-31T09:44:04.537Z,0.85
2022-12-31T09:46:31.133Z,0.75
2022-12-31T09:49:11.258Z,5.35
2022-12-31T09:51:50.003Z,1.30
2022-12-31T09:54:16.662Z,1.13
2022-12-31T09:56:47.693Z,1.10
2022-12-31T09:59:26.332Z,0.98
2022-12-31T10:02:11.935Z,1.10
2022-12-31T10:04:57.649Z,0.85
2022-12-31T10:07:29.142Z,1.40
2022-12-31T10:10:11.224Z,1.10
2022-12-31T10:12:43.793Z,1.38
2022-12-31T10:15:28.925Z,0.95
2022-12-31T10:18:14.555Z,1.08
2022-12-31T10:20:47.268Z,0.90
2022-12-31T10:23:19.961Z,1.10
2022-12-31T10:26:07.588Z,1.00
2022-12-31T10:28:43.225Z,1.08
2022-12-31T10:31:09.964Z,1.05
2022-12-31T10:33:44.912Z,1.10
2022-12-31T10:36:30.304Z,1.50
2022-12-31T10:39:17.677Z,1.00
2022-12-31T10:41:54.979Z,0.98
2022-12-31T10:44:27.472Z,0.88
2022-12-31T10:47:00.368Z,1.25
2022-12-31T10:49:45.980Z,1.10
2022-12-31T10:52:12.672Z,1.20
2022-12-31T10:54:58.170Z,1.15
2022-12-31T10:57:36.791Z,1.48
2022-12-31T11:00:06.236Z,2.45
2022-12-31T11:02:42.310Z,1.88
2022-12-31T11:05:09.251Z,1.45
2022-12-31T11:07:49.360Z,1.00
2022-12-31T11:10:34.727Z,2.00
2022-12-31T11:13:01.343Z,2.10
2022-12-31T11:15:31.078Z,1.85
2022-12-31T11:18:16.461Z,1.30
2022-12-31T11:20:43.739Z,0.95
2022-12-31T11:23:27.111Z,1.00
2022-12-31T11:25:53.830Z,1.10
2022-12-31T11:28:39.339Z,1.00
2022-12-31T11:31:06.008Z,1.20
2022-12-31T11:33:35.754Z,1.30
2022-12-31T11:36:05.277Z,1.42
2022-12-31T11:38:40.876Z,1.35
2022-12-31T11:41:11.394Z,5.82
2022-12-31T11:43:38.454Z,3.17
2022-12-31T11:46:23.950Z,1.67
2022-12-31T11:48:56.781Z,1.58
2022-12-31T11:51:26.284Z,1.45
2022-12-31T11:53:58.887Z,1.15
2022-12-31T11:56:28.404Z,1.33
2022-12-31T11:58:56.124Z,0.80
2022-12-31T12:01:33.534Z,1.00
2022-12-31T12:04:01.132Z,1.05
2022-12-31T12:06:32.015Z,0.70
2022-12-31T12:09:04.524Z,0.80
2022-12-31T12:11:33.019Z,0.77
2022-12-31T12:13:59.737Z,1.10
2022-12-31T12:16:27.200Z,1.20
2022-12-31T12:19:07.611Z,0.93
2022-12-31T12:21:34.607Z,1.00
2022-12-31T12:24:02.985Z,0.70
2022-12-31T12:26:34.789Z,1.05
2022-12-31T12:29:11.497Z,0.88
2022-12-31T12:31:38.745Z,0.75
2022-12-31T12:34:06.600Z,0.80
2022-12-31T12:36:34.054Z,1.13
2022-12-31T12:39:04.839Z,0.90
2022-12-31T12:41:31.560Z,0.80
2022-12-31T12:44:04.273Z,0.80
2022-12-31T12:46:32.802Z,1.13
2022-12-31T12:48:59.635Z,0.70
2022-12-31T12:51:44.989Z,0.85
2022-12-31T12:54:30.602Z,0.82
2022-12-31T12:57:15.866Z,1.00
2022-12-31T12:59:42.541Z,0.70
2022-12-31T13:02:27.206Z,0.70
2022-12-31T13:05:03.402Z,0.90
2022-12-31T13:07:48.770Z,1.05
2022-12-31T13:10:20.808Z,1.63
2022-12-31T13:13:23.895Z,0.77
2022-12-31T13:16:04.740Z,1.40
2022-12-31T13:18:31.426Z,0.88
2022-12-31T13:21:02.285Z,0.90
2022-12-31T13:23:36.272Z,2.30
2022-12-31T13:26:18.603Z,1.63
2022-12-31T13:28:46.981Z,0.95
2022-12-31T13:31:15.284Z,0.80
2022-12-31T13:33:44.191Z,0.88
2022-12-31T13:36:15.979Z,1.23
2022-12-31T13:38:46.134Z,0.80
2022-12-31T13:41:31.219Z,0.90
2022-12-31T13:44:06.500Z,0.80
2022-12-31T13:46:35.958Z,0.95
2022-12-31T13:49:04.884Z,1.10
2022-12-31T13:51:44.611Z,1.25
2022-12-31T13:54:29.991Z,0.90
2022-12-31T13:56:59.627Z,1.17
2022-12-31T13:59:31.625Z,1.25
2022-12-31T14:02:01.428Z,1.27
2022-12-31T14:04:32.344Z,1.27
2022-12-31T14:07:02.660Z,0.80
2022-12-31T14:09:30.892Z,0.80
2022-12-31T14:12:03.355Z,1.02
2022-12-31T14:14:32.851Z,0.80
2022-12-31T14:17:02.724Z,1.10
2022-12-31T14:19:41.206Z,1.55
2022-12-31T14:22:20.437Z,1.80
2022-12-31T14:24:50.450Z,1.73
2022-12-31T14:27:17.331Z,1.58
2022-12-31T14:29:53.775Z,1.27
2022-12-31T14:32:39.181Z,1.10
2022-12-31T14:35:05.998Z,0.95
2022-12-31T14:37:41.807Z,1.10
2022-12-31T14:40:27.175Z,1.60
2022-12-31T14:42:57.167Z,1.30
2022-12-31T14:45:33.579Z,1.27
2022-12-31T14:48:03.986Z,1.00
2022-12-31T14:50:34.747Z,1.30
2022-12-31T14:53:06.276Z,1.13
2022-12-31T14:55:34.548Z,1.92
2022-12-31T14:58:26.994Z,1.08
2022-12-31T15:00:54.509Z,1.00
2022-12-31T15:03:22.813Z,1.08
2022-12-31T15:05:52.525Z,0.80
2022-12-31T15:08:48.626Z,1.10
2022-12-31T15:11:15.266Z,1.20
2022-12-31T15:13:57.318Z,2.03
2022-12-31T15:16:27.153Z,1.00
2022-12-31T15:18:53.845Z,1.10
2022-12-31T15:21:32.731Z,1.83
2022-12-31T15:24:00.604Z,6.47
2022-12-31T15:26:28.493Z,2.03
2022-12-31T15:29:02.789Z,1.73
2022-12-31T15:31:30.553Z,2.13
2022-12-31T15:34:07.627Z,2.15
2022-12-31T15:36:35.803Z,2.30
2022-12-31T15:39:11.839Z,3.55
2022-12-31T15:41:46.021Z,3.42
2022-12-31T15:44:31.826Z,3.33
2022-12-31T15:47:10.944Z,3.28
2022-12-31T15:49:40.722Z,12.85
2022-12-31T15:52:12.819Z,3.72
2022-12-31T15:54:44.421Z,3.22
2022-12-31T15:57:18.204Z,18.40
2022-12-31T15:59:45.367Z,4.35
2022-12-31T16:02:23.456Z,3.97
2022-12-31T16:04:50.683Z,3.83
2022-12-31T16:07:17.884Z,2.92
2022-12-31T16:09:49.728Z,2.97
2022-12-31T16:12:19.863Z,2.80
2022-12-31T16:14:49.582Z,3.05
2022-12-31T16:17:33.028Z,4.00
2022-12-31T16:20:00.558Z,4.25
2022-12-31T16:22:37.376Z,5.25
2022-12-31T16:25:30.085Z,8.85
2022-12-31T16:27:51.977Z,12.95
2022-12-31T16:30:21.569Z,5.97
2022-12-31T16:32:50.029Z,6.60
2022-12-31T16:35:28.314Z,3.97
2022-12-31T16:38:21.625Z,4.75
2022-12-31T16:41:03.511Z,16.13
2022-12-31T16:43:36.085Z,7.28
2022-12-31T16:46:20.634Z,6.70
2022-12-31T16:48:49.792Z,6.90
2022-12-31T16:51:21.181Z,6.68
2022-12-31T16:53:48.385Z,6.03
2022-12-31T16:56:22.651Z,6.25
2022-12-31T16:58:49.958Z,5.40
2022-12-31T17:01:16.728Z,7.47
2022-12-31T17:03:49.566Z,7.35
2022-12-31T17:06:17.600Z,5.18
2022-12-31T17:08:56.367Z,4.68
2022-12-31T17:11:41.829Z,4.93
2022-12-31T17:14:08.523Z,5.82
2022-12-31T17:16:36.591Z,5.60
2022-12-31T17:19:03.636Z,5.00
2022-12-31T17:21:31.618Z,5.25
2022-12-31T17:24:03.145Z,4.72
2022-12-31T17:26:31.110Z,5.40
2022-12-31T17:28:58.704Z,5.30
2022-12-31T17:31:25.493Z,5.78
2022-12-31T17:34:03.958Z,5.78
2022-12-31T17:36:30.682Z,5.95
2022-12-31T17:39:10.764Z,5.82
2022-12-31T17:41:37.493Z,5.05
2022-12-31T17:44:04.314Z,5.20
2022-12-31T17:46:31.467Z,6.45
2022-12-31T17:49:01.696Z,6.03
2022-12-31T17:51:28.380Z,7.45
2022-12-31T17:53:55.127Z,6.85
2022-12-31T17:56:21.811Z,6.05
2022-12-31T17:58:52.514Z,6.50
2022-12-31T18:01:20.777Z,25.45
2022-12-31T18:03:50.550Z,57.05
2022-12-31T18:06:19.498Z,34.95
2022-12-31T18:08:46.595Z,8.02
2022-12-31T18:11:17.788Z,17.98
2022-12-31T18:13:44.967Z,8.85
2022-12-31T18:16:11.726Z,10.27
2022-12-31T18:18:40.048Z,7.22
2022-12-31T18:21:14.120Z,7.30
2022-12-31T18:23:42.494Z,5.30
2022-12-31T18:26:13.025Z,5.82
2022-12-31T18:28:39.674Z,5.95
2022-12-31T18:31:06.367Z,7.95
2022-12-31T18:33:33.343Z,7.15
2022-12-31T18:36:09.310Z,7.82
2022-12-31T18:38:36.878Z,15.70
2022-12-31T18:41:03.781Z,9.18
2022-12-31T18:43:30.450Z,12.65
2022-12-31T18:45:57.219Z,13.82
2022-12-31T18:48:23.947Z,12.93
2022-12-31T18:50:50.636Z,9.75
2022-12-31T18:53:19.245Z,8.63
2022-12-31T18:55:47.959Z,8.82
2022-12-31T18:58:14.708Z,10.23
2022-12-31T19:00:44.213Z,9.57
2022-12-31T19:03:17.258Z,10.55
2022-12-31T19:05:45.610Z,8.13
2022-12-31T19:08:12.250Z,8.43
2022-12-31T19:10:38.915Z,8.32
2022-12-31T19:13:05.579Z,9.40
2022-12-31T19:15:40.357Z,13.05
2022-12-31T19:18:07.143Z,15.55
2022-12-31T19:20:33.900Z,15.45
2022-12-31T19:23:00.578Z,11.10
2022-12-31T19:25:28.675Z,50.03
2022-12-31T19:27:55.362Z,22.98
2022-12-31T19:30:23.852Z,16.48
2022-12-31T19:32:50.689Z,17.25
2022-12-31T19:35:17.906Z,49.28
2022-12-31T19:37:45.356Z,30.85
2022-12-31T19:40:13.522Z,22.63
2022-12-31T19:42:40.293Z,19.25
2022-12-31T19:45:07.600Z,15.10
2022-12-31T19:47:34.278Z,15.43
2022-12-31T19:50:00.848Z,13.98
2022-12-31T19:52:27.559Z,15.85
2022-12-31T19:54:54.185Z,15.88
2022-12-31T19:57:20.834Z,21.92
2022-12-31T19:59:47.568Z,27.92
2022-12-31T20:02:17.086Z,15.57
2022-12-31T20:04:43.998Z,13.30
2022-12-31T20:07:10.739Z,12.70
2022-12-31T20:09:37.527Z,13.88
2022-12-31T20:12:04.314Z,16.85
2022-12-31T20:14:31.272Z,15.45
2022-12-31T20:16:58.140Z,14.25
2022-12-31T20:19:24.952Z,13.95
2022-12-31T20:21:51.835Z,16.00
2022-12-31T20:24:18.574Z,17.67
2022-12-31T20:26:45.413Z,65.53
2022-12-31T20:29:12.254Z,104.40
2022-12-31T20:31:39.703Z,25.70
2022-12-31T20:34:06.720Z,29.38
2022-12-31T20:36:33.801Z,147.15
2022-12-31T20:39:00.621Z,131.25
2022-12-31T20:41:27.566Z,50.88
2022-12-31T20:43:54.436Z,21.40
2022-12-31T20:46:23.267Z,19.80
2022-12-31T20:48:51.378Z,19.27
2022-12-31T20:51:19.667Z,26.75
2022-12-31T20:53:50.356Z,21.55
2022-12-31T20:56:19.718Z,19.02
2022-12-31T20:58:46.842Z,28.70
2022-12-31T21:01:14.268Z,27.90
2022-12-31T21:06:29.125Z,25.50
2022-12-31T21:08:56.478Z,24.88
2022-12-31T21:11:41.809Z,28.23
2022-12-31T21:14:08.442Z,23.38
2022-12-31T21:16:35.387Z,21.45
2022-12-31T21:19:02.345Z,18.95
2022-12-31T21:21:28.972Z,19.90
2022-12-31T21:23:55.756Z,21.08
2022-12-31T21:26:22.686Z,17.67
2022-12-31T21:28:49.434Z,18.77
2022-12-31T21:31:16.313Z,18.52
2022-12-31T21:33:47.401Z,19.75
2022-12-31T21:36:14.172Z,20.20
2022-12-31T21:38:41.005Z,40.67
2022-12-31T21:41:08.537Z,34.03
2022-12-31T21:43:35.485Z,36.85
2022-12-31T21:46:03.238Z,35.30
2022-12-31T21:48:30.244Z,36.45
2022-12-31T21:51:11.375Z,35.22
2022-12-31T21:53:38.031Z,38.30
2022-12-31T21:56:13.745Z,37.60
2022-12-31T21:58:42.069Z,32.63
2022-12-31T22:01:39.235Z,34.78
2022-12-31T22:04:07.896Z,35.40
2022-12-31T22:06:39.758Z,35.10
2022-12-31T22:09:06.603Z,32.47
2022-12-31T22:11:33.351Z,32.08
2022-12-31T22:14:00.162Z,31.65
2022-12-31T22:16:29.945Z,32.70
2022-12-31T22:18:56.751Z,30.35
2022-12-31T22:21:24.458Z,31.60
2022-12-31T22:23:52.478Z,31.13
2022-12-31T22:26:21.370Z,35.42
2022-12-31T22:28:48.168Z,30.98
2022-12-31T22:31:16.077Z,30.75
2022-12-31T22:33:43.250Z,30.27
2022-12-31T22:36:14.798Z,29.42
2022-12-31T22:38:41.726Z,30.40
2022-12-31T22:41:08.319Z,30.58
2022-12-31T22:43:36.414Z,30.25
2022-12-31T22:46:07.116Z,29.60
2022-12-31T22:48:33.877Z,28.27
2022-12-31T22:51:00.535Z,28.95
2022-12-31T22:53:27.121Z,26.77
2022-12-31T22:55:54.749Z,27.90
2022-12-31T22:58:21.950Z,28.90
2022-12-31T23:00:48.633Z,31.40
2022-12-31T23:03:15.360Z,31.27
2022-12-31T23:05:42.386Z,32.58
2022-12-31T23:08:18.690Z,31.52
2022-12-31T23:10:59.727Z,41.88
2022-12-31T23:13:51.065Z,450.58
2022-12-31T23:16:37.622Z,197.60
2022-12-31T23:19:23.058Z,285.83
2022-12-31T23:22:08.361Z,141.93
2022-12-31T23:24:35.276Z,223.70
2022-12-31T23:27:02.081Z,152.25
2022-12-31T23:29:28.881Z,253.43
2022-12-31T23:31:55.771Z,185.65
2022-12-31T23:34:23.007Z,95.32
2022-12-31T23:36:49.847Z,75.88
2022-12-31T23:39:16.721Z,94.43
2022-12-31T23:41:43.491Z,142.40
2022-12-31T23:44:11.905Z,63.33
2022-12-31T23:46:38.975Z,64.50
2022-12-31T23:49:05.637Z,67.45
2022-12-31T23:51:32.408Z,51.78
2022-12-31T23:53:59.091Z,70.53
2022-12-31T23:56:25.786Z,71.63
2022-12-31T23:58:56.290Z,48.92
